LICR/REG METAR and TAF weather

Enter ICAO airport designator
Station Type Date Time Source
LICR METAR 2022/01/18 07:20 UTC NOAA

LICR 180720Z AUTO 01007KT 340V040 9999 FEW050/// 13/07 Q1029


Station Type Date Time Source
LICR Decoded METAR 2022/01/18 07:20 UTC NOAA

Reggio Calabria, Italy (LICR) 38-04N 015-39E 21M
Jan 18, 2022 - 02:20 AM EST / 2022.01.18 0720 UTC
Wind: from the N (010 degrees) at 8 MPH (7 KT) (direction variable):0
Visibility: greater than 7 mile(s):0
Sky conditions: mostly clear
Temperature: 55 F (13 C)
Dew Point: 44 F (7 C)
Relative Humidity: 66%
Pressure (altimeter): 30.39 in. Hg (1029 hPa)
ob: LICR 180720Z AUTO 01007KT 340V040 9999 FEW050/// 13/07 Q1029
cycle: 7

Station Type Date Time Source
LICR TAF 2022/01/18 06:22 UTC NOAA

TAF LICR 180500Z 1806/1906 36008KT 9999 SCT030

Example: see airport list